sensor_id;sensor_type;location;lat;lon;timestamp;P1;durP1;ratioP1;P2;durP2;ratioP2
1164;SDS011;571;50.930;6.926;2022-11-15T03:46:11;7.30;;;5.90;;
1164;SDS011;571;50.930;6.926;2022-11-15T03:48:41;7.90;;;7.20;;
1164;SDS011;571;50.930;6.926;2022-11-15T03:51:12;9.07;;;6.33;;
1164;SDS011;571;50.930;6.926;2022-11-15T03:53:40;6.73;;;5.97;;
1164;SDS011;571;50.930;6.926;2022-11-15T03:56:07;6.73;;;6.13;;
1164;SDS011;571;50.930;6.926;2022-11-15T03:58:40;7.00;;;6.40;;
1164;SDS011;571;50.930;6.926;2022-11-15T04:01:07;6.73;;;6.10;;
1164;SDS011;571;50.930;6.926;2022-11-15T04:03:35;7.47;;;6.13;;
1164;SDS011;571;50.930;6.926;2022-11-15T04:06:01;11.20;;;7.53;;
1164;SDS011;571;50.930;6.926;2022-11-15T04:08:28;8.00;;;7.20;;
1164;SDS011;571;50.930;6.926;2022-11-15T04:10:55;7.30;;;6.40;;
1164;SDS011;571;50.930;6.926;2022-11-15T04:13:21;8.23;;;6.37;;
1164;SDS011;571;50.930;6.926;2022-11-15T04:15:48;7.40;;;6.60;;
1164;SDS011;571;50.930;6.926;2022-11-15T04:18:16;7.63;;;6.83;;
1164;SDS011;571;50.930;6.926;2022-11-15T04:20:43;7.67;;;6.87;;
1164;SDS011;571;50.930;6.926;2022-11-15T04:23:27;8.00;;;6.90;;
1164;SDS011;571;50.930;6.926;2022-11-15T04:26:12;9.83;;;8.53;;
1164;SDS011;571;50.930;6.926;2022-11-15T04:28:42;9.00;;;6.73;;
1164;SDS011;571;50.930;6.926;2022-11-15T04:31:23;7.57;;;6.40;;
1164;SDS011;571;50.930;6.926;2022-11-15T04:33:51;7.17;;;6.47;;
1164;SDS011;571;50.930;6.926;2022-11-15T04:36:18;7.63;;;6.93;;
1164;SDS011;571;50.930;6.926;2022-11-15T04:39:02;7.50;;;6.80;;
1164;SDS011;571;50.930;6.926;2022-11-15T04:41:29;6.50;;;5.80;;
1164;SDS011;571;50.930;6.926;2022-11-15T04:43:56;7.23;;;6.53;;
1164;SDS011;571;50.930;6.926;2022-11-15T04:46:22;7.57;;;6.67;;
1164;SDS011;571;50.930;6.926;2022-11-15T04:48:51;7.00;;;6.40;;
1164;SDS011;571;50.930;6.926;2022-11-15T04:51:18;8.47;;;6.70;;
1164;SDS011;571;50.930;6.926;2022-11-15T04:53:45;7.33;;;6.70;;
1164;SDS011;571;50.930;6.926;2022-11-15T04:56:12;6.07;;;5.57;;
1164;SDS011;571;50.930;6.926;2022-11-15T04:58:39;5.90;;;5.40;;
1164;SDS011;571;50.930;6.926;2022-11-15T05:01:06;9.83;;;7.10;;
1164;SDS011;571;50.930;6.926;2022-11-15T05:03:33;7.10;;;6.50;;
1164;SDS011;571;50.930;6.926;2022-11-15T05:06:19;7.33;;;5.90;;
1164;SDS011;571;50.930;6.926;2022-11-15T05:08:46;6.47;;;5.87;;
1164;SDS011;571;50.930;6.926;2022-11-15T05:11:13;11.73;;;6.37;;
1164;SDS011;571;50.930;6.926;2022-11-15T05:13:39;7.00;;;6.30;;
1164;SDS011;571;50.930;6.926;2022-11-15T05:16:06;7.63;;;6.97;;
1164;SDS011;571;50.930;6.926;2022-11-15T05:18:33;6.80;;;6.10;;
1164;SDS011;571;50.930;6.926;2022-11-15T05:21:02;7.10;;;6.40;;
1164;SDS011;571;50.930;6.926;2022-11-15T05:23:30;8.83;;;6.70;;
1164;SDS011;571;50.930;6.926;2022-11-15T05:25:58;8.77;;;7.10;;
1164;SDS011;571;50.930;6.926;2022-11-15T05:28:25;6.23;;;5.73;;
1164;SDS011;571;50.930;6.926;2022-11-15T05:30:52;6.87;;;6.20;;
1164;SDS011;571;50.930;6.926;2022-11-15T05:33:18;6.63;;;5.97;;
1164;SDS011;571;50.930;6.926;2022-11-15T05:35:46;8.07;;;6.40;;
1164;SDS011;571;50.930;6.926;2022-11-15T05:38:20;7.30;;;6.60;;
1164;SDS011;571;50.930;6.926;2022-11-15T05:40:48;7.07;;;6.37;;
1164;SDS011;571;50.930;6.926;2022-11-15T05:43:15;6.17;;;5.57;;
1164;SDS011;571;50.930;6.926;2022-11-15T05:45:42;6.10;;;5.50;;
1164;SDS011;571;50.930;6.926;2022-11-15T05:48:09;6.63;;;6.03;;
1164;SDS011;571;50.930;6.926;2022-11-15T05:50:36;6.83;;;5.83;;
1164;SDS011;571;50.930;6.926;2022-11-15T05:53:07;6.77;;;6.17;;
1164;SDS011;571;50.930;6.926;2022-11-15T05:55:34;6.13;;;5.53;;
1164;SDS011;571;50.930;6.926;2022-11-15T05:58:02;5.37;;;4.90;;
1164;SDS011;571;50.930;6.926;2022-11-15T06:00:28;5.67;;;5.03;;
1164;SDS011;571;50.930;6.926;2022-11-15T06:02:55;7.17;;;6.43;;
1164;SDS011;571;50.930;6.926;2022-11-15T06:05:22;6.07;;;5.47;;
1164;SDS011;571;50.930;6.926;2022-11-15T06:07:49;6.87;;;6.20;;
1164;SDS011;571;50.930;6.926;2022-11-15T06:10:16;6.30;;;5.70;;
1164;SDS011;571;50.930;6.926;2022-11-15T06:12:43;7.33;;;6.20;;
1164;SDS011;571;50.930;6.926;2022-11-15T06:15:11;7.70;;;6.20;;
1164;SDS011;571;50.930;6.926;2022-11-15T06:17:37;7.60;;;6.90;;
1164;SDS011;571;50.930;6.926;2022-11-15T06:20:04;5.80;;;5.33;;
1164;SDS011;571;50.930;6.926;2022-11-15T06:22:32;8.03;;;6.43;;
1164;SDS011;571;50.930;6.926;2022-11-15T06:24:58;5.70;;;5.20;;
1164;SDS011;571;50.930;6.926;2022-11-15T06:27:25;6.03;;;5.43;;
1164;SDS011;571;50.930;6.926;2022-11-15T06:29:52;7.33;;;5.63;;
1164;SDS011;571;50.930;6.926;2022-11-15T06:32:20;4.90;;;4.33;;
1164;SDS011;571;50.930;6.926;2022-11-15T06:34:47;5.30;;;4.80;;
1164;SDS011;571;50.930;6.926;2022-11-15T06:37:13;5.70;;;5.13;;
1164;SDS011;571;50.930;6.926;2022-11-15T06:39:40;7.80;;;4.90;;
1164;SDS011;571;50.930;6.926;2022-11-15T06:42:07;6.03;;;5.43;;
1164;SDS011;571;50.930;6.926;2022-11-15T06:44:34;7.40;;;5.83;;
1164;SDS011;571;50.930;6.926;2022-11-15T06:47:01;6.57;;;5.13;;
1164;SDS011;571;50.930;6.926;2022-11-15T06:49:29;8.00;;;4.97;;
1164;SDS011;571;50.930;6.926;2022-11-15T06:51:56;6.07;;;4.97;;
1164;SDS011;571;50.930;6.926;2022-11-15T06:54:22;6.00;;;4.80;;
1164;SDS011;571;50.930;6.926;2022-11-15T06:56:49;5.30;;;4.13;;
1164;SDS011;571;50.930;6.926;2022-11-15T06:59:16;5.73;;;4.67;;
1164;SDS011;571;50.930;6.926;2022-11-15T07:01:42;4.57;;;4.07;;
1164;SDS011;571;50.930;6.926;2022-11-15T07:04:09;5.33;;;4.87;;
1164;SDS011;571;50.930;6.926;2022-11-15T07:06:37;4.50;;;3.73;;
1164;SDS011;571;50.930;6.926;2022-11-15T07:09:04;7.60;;;4.70;;
1164;SDS011;571;50.930;6.926;2022-11-15T07:11:32;5.00;;;3.60;;
1164;SDS011;571;50.930;6.926;2022-11-15T07:13:59;4.63;;;3.60;;
1164;SDS011;571;50.930;6.926;2022-11-15T07:16:26;6.17;;;3.90;;
1164;SDS011;571;50.930;6.926;2022-11-15T07:18:53;6.10;;;3.70;;
1164;SDS011;571;50.930;6.926;2022-11-15T07:21:20;7.73;;;3.17;;
1164;SDS011;571;50.930;6.926;2022-11-15T07:23:48;13.30;;;4.03;;
1164;SDS011;571;50.930;6.926;2022-11-15T07:26:14;4.43;;;3.67;;
1164;SDS011;571;50.930;6.926;2022-11-15T07:28:41;4.20;;;3.80;;
1164;SDS011;571;50.930;6.926;2022-11-15T07:31:08;7.53;;;4.27;;
1164;SDS011;571;50.930;6.926;2022-11-15T07:33:35;4.00;;;3.13;;
1164;SDS011;571;50.930;6.926;2022-11-15T07:36:02;5.07;;;4.20;;
1164;SDS011;571;50.930;6.926;2022-11-15T07:38:30;7.50;;;3.60;;
1164;SDS011;571;50.930;6.926;2022-11-15T07:40:59;8.20;;;4.37;;
1164;SDS011;571;50.930;6.926;2022-11-15T07:43:27;3.70;;;3.30;;
1164;SDS011;571;50.930;6.926;2022-11-15T07:45:54;3.83;;;3.40;;
1164;SDS011;571;50.930;6.926;2022-11-15T07:48:22;5.50;;;3.20;;
1164;SDS011;571;50.930;6.926;2022-11-15T07:50:49;3.73;;;2.80;;
1164;SDS011;571;50.930;6.926;2022-11-15T07:53:16;3.43;;;2.57;;
1164;SDS011;571;50.930;6.926;2022-11-15T07:55:43;3.70;;;2.70;;
1164;SDS011;571;50.930;6.926;2022-11-15T07:58:11;3.40;;;2.47;;
1164;SDS011;571;50.930;6.926;2022-11-15T08:00:39;2.80;;;1.93;;
1164;SDS011;571;50.930;6.926;2022-11-15T08:03:06;3.10;;;2.10;;
1164;SDS011;571;50.930;6.926;2022-11-15T08:05:35;2.67;;;1.90;;
1164;SDS011;571;50.930;6.926;2022-11-15T08:08:04;3.03;;;2.27;;
1164;SDS011;571;50.930;6.926;2022-11-15T08:10:31;3.63;;;1.83;;
1164;SDS011;571;50.930;6.926;2022-11-15T08:12:58;2.40;;;2.20;;
1164;SDS011;571;50.930;6.926;2022-11-15T08:15:27;4.87;;;1.97;;
1164;SDS011;571;50.930;6.926;2022-11-15T08:17:55;2.00;;;1.43;;
1164;SDS011;571;50.930;6.926;2022-11-15T08:20:22;2.27;;;1.87;;
1164;SDS011;571;50.930;6.926;2022-11-15T08:22:49;2.17;;;1.83;;
1164;SDS011;571;50.930;6.926;2022-11-15T08:25:16;2.77;;;2.13;;
1164;SDS011;571;50.930;6.926;2022-11-15T08:27:43;2.50;;;2.00;;
1164;SDS011;571;50.930;6.926;2022-11-15T08:30:10;2.77;;;2.47;;
1164;SDS011;571;50.930;6.926;2022-11-15T08:32:39;2.67;;;2.17;;
1164;SDS011;571;50.930;6.926;2022-11-15T08:35:06;3.57;;;1.93;;
1164;SDS011;571;50.930;6.926;2022-11-15T08:37:33;4.17;;;2.07;;
1164;SDS011;571;50.930;6.926;2022-11-15T08:40:00;2.60;;;1.80;;
1164;SDS011;571;50.930;6.926;2022-11-15T08:42:27;2.50;;;2.30;;
1164;SDS011;571;50.930;6.926;2022-11-15T08:44:54;3.00;;;2.00;;
1164;SDS011;571;50.930;6.926;2022-11-15T08:47:21;3.60;;;2.27;;
1164;SDS011;571;50.930;6.926;2022-11-15T08:49:49;2.70;;;2.13;;
1164;SDS011;571;50.930;6.926;2022-11-15T08:52:16;2.80;;;1.80;;
1164;SDS011;571;50.930;6.926;2022-11-15T08:54:43;1.70;;;1.50;;
1164;SDS011;571;50.930;6.926;2022-11-15T08:57:09;1.67;;;1.50;;
1164;SDS011;571;50.930;6.926;2022-11-15T08:59:36;1.40;;;1.30;;
1164;SDS011;571;50.930;6.926;2022-11-15T09:02:03;1.23;;;1.13;;
1164;SDS011;571;50.930;6.926;2022-11-15T09:04:30;1.67;;;1.30;;
1164;SDS011;571;50.930;6.926;2022-11-15T09:06:58;1.50;;;1.40;;
1164;SDS011;571;50.930;6.926;2022-11-15T09:09:25;2.60;;;1.70;;
1164;SDS011;571;50.930;6.926;2022-11-15T09:11:52;2.30;;;1.50;;
1164;SDS011;571;50.930;6.926;2022-11-15T09:14:18;2.23;;;1.70;;
1164;SDS011;571;50.930;6.926;2022-11-15T09:16:45;2.27;;;1.30;;
1164;SDS011;571;50.930;6.926;2022-11-15T09:19:12;2.90;;;1.87;;
1164;SDS011;571;50.930;6.926;2022-11-15T09:21:39;2.17;;;1.53;;
1164;SDS011;571;50.930;6.926;2022-11-15T09:24:07;4.40;;;2.67;;
1164;SDS011;571;50.930;6.926;2022-11-15T09:26:34;3.10;;;2.13;;
1164;SDS011;571;50.930;6.926;2022-11-15T09:29:01;2.60;;;1.60;;
1164;SDS011;571;50.930;6.926;2022-11-15T09:31:28;2.07;;;1.27;;
1164;SDS011;571;50.930;6.926;2022-11-15T09:33:55;2.70;;;1.87;;
1164;SDS011;571;50.930;6.926;2022-11-15T09:36:22;4.30;;;2.00;;
1164;SDS011;571;50.930;6.926;2022-11-15T09:38:48;1.50;;;1.40;;
1164;SDS011;571;50.930;6.926;2022-11-15T09:41:25;1.33;;;1.20;;
1164;SDS011;571;50.930;6.926;2022-11-15T09:44:15;2.13;;;1.87;;
1164;SDS011;571;50.930;6.926;2022-11-15T09:47:06;1.63;;;1.43;;
1164;SDS011;571;50.930;6.926;2022-11-15T09:49:51;0.93;;;0.80;;
1164;SDS011;571;50.930;6.926;2022-11-15T09:52:18;1.60;;;1.30;;
1164;SDS011;571;50.930;6.926;2022-11-15T09:54:47;2.70;;;1.47;;
1164;SDS011;571;50.930;6.926;2022-11-15T09:57:26;1.77;;;1.67;;
1164;SDS011;571;50.930;6.926;2022-11-15T10:00:08;2.50;;;1.57;;
1164;SDS011;571;50.930;6.926;2022-11-15T10:02:43;2.93;;;1.20;;
1164;SDS011;571;50.930;6.926;2022-11-15T10:05:19;3.53;;;1.20;;
1164;SDS011;571;50.930;6.926;2022-11-15T10:07:50;4.53;;;1.40;;
1164;SDS011;571;50.930;6.926;2022-11-15T10:10:24;2.27;;;1.30;;
1164;SDS011;571;50.930;6.926;2022-11-15T10:12:57;2.50;;;1.47;;
1164;SDS011;571;50.930;6.926;2022-11-15T10:15:24;1.37;;;1.00;;
1164;SDS011;571;50.930;6.926;2022-11-15T10:17:59;2.80;;;1.40;;
1164;SDS011;571;50.930;6.926;2022-11-15T10:20:42;2.20;;;0.90;;
1164;SDS011;571;50.930;6.926;2022-11-15T10:23:14;2.80;;;1.00;;
1164;SDS011;571;50.930;6.926;2022-11-15T10:25:43;2.63;;;1.20;;
1164;SDS011;571;50.930;6.926;2022-11-15T10:28:12;0.70;;;0.70;;
1164;SDS011;571;50.930;6.926;2022-11-15T10:30:41;2.83;;;1.00;;
1164;SDS011;571;50.930;6.926;2022-11-15T10:33:11;1.73;;;1.03;;
1164;SDS011;571;50.930;6.926;2022-11-15T10:35:43;4.63;;;1.17;;
1164;SDS011;571;50.930;6.926;2022-11-15T10:38:10;2.60;;;1.20;;
1164;SDS011;571;50.930;6.926;2022-11-15T10:40:38;2.20;;;1.10;;
1164;SDS011;571;50.930;6.926;2022-11-15T10:43:14;4.53;;;1.43;;
1164;SDS011;571;50.930;6.926;2022-11-15T10:45:43;1.40;;;1.30;;
1164;SDS011;571;50.930;6.926;2022-11-15T10:48:20;1.63;;;1.30;;
1164;SDS011;571;50.930;6.926;2022-11-15T10:50:49;4.00;;;1.30;;
1164;SDS011;571;50.930;6.926;2022-11-15T10:53:19;2.20;;;0.90;;
1164;SDS011;571;50.930;6.926;2022-11-15T10:55:56;1.10;;;1.00;;
1164;SDS011;571;50.930;6.926;2022-11-15T10:58:31;2.00;;;0.83;;
1164;SDS011;571;50.930;6.926;2022-11-15T11:01:11;2.20;;;1.03;;
1164;SDS011;571;50.930;6.926;2022-11-15T11:03:40;3.63;;;0.97;;
1164;SDS011;571;50.930;6.926;2022-11-15T11:06:10;1.40;;;1.07;;
1164;SDS011;571;50.930;6.926;2022-11-15T11:08:38;1.10;;;1.00;;
1164;SDS011;571;50.930;6.926;2022-11-15T11:11:06;2.00;;;1.10;;
1164;SDS011;571;50.930;6.926;2022-11-15T11:13:35;2.20;;;1.00;;
1164;SDS011;571;50.930;6.926;2022-11-15T11:16:10;1.50;;;1.30;;
1164;SDS011;571;50.930;6.926;2022-11-15T11:18:47;1.10;;;0.70;;
1164;SDS011;571;50.930;6.926;2022-11-15T11:21:22;2.30;;;0.80;;
1164;SDS011;571;50.930;6.926;2022-11-15T11:23:53;1.70;;;0.63;;
1164;SDS011;571;50.930;6.926;2022-11-15T11:26:31;0.80;;;0.63;;
1164;SDS011;571;50.930;6.926;2022-11-15T11:29:10;1.40;;;0.87;;
1164;SDS011;571;50.930;6.926;2022-11-15T11:31:48;3.30;;;0.80;;
1164;SDS011;571;50.930;6.926;2022-11-15T11:34:27;1.23;;;0.70;;
1164;SDS011;571;50.930;6.926;2022-11-15T11:37:05;2.60;;;0.90;;
1164;SDS011;571;50.930;6.926;2022-11-15T11:39:40;3.43;;;0.93;;
1164;SDS011;571;50.930;6.926;2022-11-15T11:42:16;1.63;;;0.93;;
1164;SDS011;571;50.930;6.926;2022-11-15T11:44:54;4.23;;;0.77;;
1164;SDS011;571;50.930;6.926;2022-11-15T11:47:29;1.90;;;1.30;;
1164;SDS011;571;50.930;6.926;2022-11-15T11:49:59;2.80;;;0.90;;
1164;SDS011;571;50.930;6.926;2022-11-15T11:52:30;3.43;;;0.93;;
1164;SDS011;571;50.930;6.926;2022-11-15T11:55:02;2.20;;;1.00;;
1164;SDS011;571;50.930;6.926;2022-11-15T11:57:39;3.80;;;1.17;;
1164;SDS011;571;50.930;6.926;2022-11-15T12:00:17;2.57;;;0.73;;
1164;SDS011;571;50.930;6.926;2022-11-15T12:02:47;1.60;;;0.73;;
1164;SDS011;571;50.930;6.926;2022-11-15T12:05:26;3.23;;;0.80;;
1164;SDS011;571;50.930;6.926;2022-11-15T12:08:09;3.17;;;0.90;;
1164;SDS011;571;50.930;6.926;2022-11-15T12:10:57;3.40;;;0.97;;
1164;SDS011;571;50.930;6.926;2022-11-15T12:13:29;2.00;;;1.10;;
1164;SDS011;571;50.930;6.926;2022-11-15T12:16:03;1.47;;;0.80;;
1164;SDS011;571;50.930;6.926;2022-11-15T12:18:35;1.53;;;1.00;;
1164;SDS011;571;50.930;6.926;2022-11-15T12:21:04;1.90;;;0.77;;
1164;SDS011;571;50.930;6.926;2022-11-15T12:23:37;0.90;;;0.80;;
1164;SDS011;571;50.930;6.926;2022-11-15T12:26:08;2.73;;;0.87;;
1164;SDS011;571;50.930;6.926;2022-11-15T12:28:42;4.07;;;1.30;;
1164;SDS011;571;50.930;6.926;2022-11-15T12:31:16;1.67;;;0.80;;
1164;SDS011;571;50.930;6.926;2022-11-15T12:33:48;2.07;;;1.13;;
1164;SDS011;571;50.930;6.926;2022-11-15T12:36:29;1.10;;;1.00;;
1164;SDS011;571;50.930;6.926;2022-11-15T12:39:01;9.33;;;1.67;;
1164;SDS011;571;50.930;6.926;2022-11-15T12:41:29;3.00;;;1.27;;
1164;SDS011;571;50.930;6.926;2022-11-15T12:43:57;4.77;;;1.57;;
1164;SDS011;571;50.930;6.926;2022-11-15T12:49:44;3.63;;;1.73;;
1164;SDS011;571;50.930;6.926;2022-11-15T12:52:12;2.90;;;1.00;;
1164;SDS011;571;50.930;6.926;2022-11-15T12:54:55;6.33;;;1.23;;
1164;SDS011;571;50.930;6.926;2022-11-15T12:57:28;2.23;;;1.23;;
1164;SDS011;571;50.930;6.926;2022-11-15T13:06:04;3.20;;;1.50;;
1164;SDS011;571;50.930;6.926;2022-11-15T13:08:43;4.73;;;1.40;;
1164;SDS011;571;50.930;6.926;2022-11-15T13:23:00;3.37;;;1.63;;
1164;SDS011;571;50.930;6.926;2022-11-15T13:25:46;3.20;;;1.50;;
1164;SDS011;571;50.930;6.926;2022-11-15T13:28:31;3.27;;;1.80;;
1164;SDS011;571;50.930;6.926;2022-11-15T13:31:00;7.77;;;1.70;;
1164;SDS011;571;50.930;6.926;2022-11-15T13:33:30;1.93;;;1.70;;
1164;SDS011;571;50.930;6.926;2022-11-15T13:36:01;2.33;;;1.50;;
1164;SDS011;571;50.930;6.926;2022-11-15T13:38:30;2.40;;;1.40;;
1164;SDS011;571;50.930;6.926;2022-11-15T13:40:59;2.37;;;1.90;;
1164;SDS011;571;50.930;6.926;2022-11-15T13:43:37;5.30;;;2.70;;
1164;SDS011;571;50.930;6.926;2022-11-15T13:46:05;5.77;;;2.50;;
1164;SDS011;571;50.930;6.926;2022-11-15T13:48:33;3.90;;;2.13;;
1164;SDS011;571;50.930;6.926;2022-11-15T13:51:01;3.33;;;2.90;;
1164;SDS011;571;50.930;6.926;2022-11-15T13:53:31;2.87;;;2.13;;
1164;SDS011;571;50.930;6.926;2022-11-15T13:55:59;3.47;;;2.17;;
1164;SDS011;571;50.930;6.926;2022-11-15T13:58:28;3.83;;;2.23;;
1164;SDS011;571;50.930;6.926;2022-11-15T14:00:59;5.13;;;2.63;;
1164;SDS011;571;50.930;6.926;2022-11-15T14:03:27;5.73;;;2.30;;
1164;SDS011;571;50.930;6.926;2022-11-15T14:06:03;5.70;;;2.73;;
1164;SDS011;571;50.930;6.926;2022-11-15T14:08:32;4.00;;;2.23;;
1164;SDS011;571;50.930;6.926;2022-11-15T14:11:07;3.83;;;2.40;;
1164;SDS011;571;50.930;6.926;2022-11-15T14:13:35;3.80;;;2.63;;
1164;SDS011;571;50.930;6.926;2022-11-15T14:16:12;2.87;;;1.83;;
1164;SDS011;571;50.930;6.926;2022-11-15T14:18:41;2.93;;;2.37;;
1164;SDS011;571;50.930;6.926;2022-11-15T14:21:11;5.23;;;2.27;;
1164;SDS011;571;50.930;6.926;2022-11-15T14:23:38;5.10;;;2.50;;
1164;SDS011;571;50.930;6.926;2022-11-15T14:26:05;3.40;;;2.20;;
1164;SDS011;571;50.930;6.926;2022-11-15T14:28:32;2.30;;;2.03;;
1164;SDS011;571;50.930;6.926;2022-11-15T14:31:04;2.50;;;2.30;;
1164;SDS011;571;50.930;6.926;2022-11-15T14:33:37;2.67;;;2.00;;
1164;SDS011;571;50.930;6.926;2022-11-15T14:36:05;2.80;;;2.60;;
1164;SDS011;571;50.930;6.926;2022-11-15T14:38:38;3.50;;;2.73;;
1164;SDS011;571;50.930;6.926;2022-11-15T14:41:05;3.00;;;2.60;;
1164;SDS011;571;50.930;6.926;2022-11-15T14:43:36;3.10;;;2.70;;
1164;SDS011;571;50.930;6.926;2022-11-15T14:46:03;5.90;;;2.20;;
1164;SDS011;571;50.930;6.926;2022-11-15T14:48:30;4.37;;;2.83;;
1164;SDS011;571;50.930;6.926;2022-11-15T14:50:56;3.43;;;2.37;;
1164;SDS011;571;50.930;6.926;2022-11-15T14:53:23;1.60;;;1.50;;
1164;SDS011;571;50.930;6.926;2022-11-15T14:55:51;4.13;;;2.23;;
1164;SDS011;571;50.930;6.926;2022-11-15T14:58:18;6.30;;;2.23;;
1164;SDS011;571;50.930;6.926;2022-11-15T15:00:45;3.73;;;2.00;;
1164;SDS011;571;50.930;6.926;2022-11-15T15:03:12;3.50;;;2.60;;
1164;SDS011;571;50.930;6.926;2022-11-15T15:05:39;3.40;;;3.00;;
1164;SDS011;571;50.930;6.926;2022-11-15T15:08:07;2.43;;;1.77;;
1164;SDS011;571;50.930;6.926;2022-11-15T15:10:35;2.37;;;2.13;;
1164;SDS011;571;50.930;6.926;2022-11-15T15:13:05;2.60;;;2.40;;
1164;SDS011;571;50.930;6.926;2022-11-15T15:15:36;2.47;;;1.73;;
1164;SDS011;571;50.930;6.926;2022-11-15T15:18:04;6.87;;;3.53;;
1164;SDS011;571;50.930;6.926;2022-11-15T15:20:33;4.27;;;2.10;;
1164;SDS011;571;50.930;6.926;2022-11-15T15:23:00;3.13;;;1.53;;
1164;SDS011;571;50.930;6.926;2022-11-15T15:25:28;2.47;;;2.07;;
1164;SDS011;571;50.930;6.926;2022-11-15T15:27:58;2.07;;;1.70;;
1164;SDS011;571;50.930;6.926;2022-11-15T15:30:28;2.33;;;1.67;;
1164;SDS011;571;50.930;6.926;2022-11-15T15:32:55;1.73;;;1.20;;
1164;SDS011;571;50.930;6.926;2022-11-15T15:35:22;2.00;;;1.57;;
1164;SDS011;571;50.930;6.926;2022-11-15T15:37:50;3.07;;;1.43;;
1164;SDS011;571;50.930;6.926;2022-11-15T15:40:17;5.90;;;2.20;;
1164;SDS011;571;50.930;6.926;2022-11-15T15:42:45;3.90;;;1.87;;
1164;SDS011;571;50.930;6.926;2022-11-15T15:45:13;5.20;;;2.50;;
1164;SDS011;571;50.930;6.926;2022-11-15T15:47:42;3.47;;;2.23;;
1164;SDS011;571;50.930;6.926;2022-11-15T15:50:16;2.53;;;2.33;;
1164;SDS011;571;50.930;6.926;2022-11-15T15:52:47;3.20;;;2.00;;
1164;SDS011;571;50.930;6.926;2022-11-15T15:55:13;3.63;;;1.97;;
1164;SDS011;571;50.930;6.926;2022-11-15T15:57:40;3.70;;;2.20;;
1164;SDS011;571;50.930;6.926;2022-11-15T16:00:08;3.00;;;1.60;;
1164;SDS011;571;50.930;6.926;2022-11-15T16:02:35;3.50;;;1.93;;
1164;SDS011;571;50.930;6.926;2022-11-15T16:05:04;3.10;;;1.87;;
1164;SDS011;571;50.930;6.926;2022-11-15T16:07:31;1.73;;;1.50;;
1164;SDS011;571;50.930;6.926;2022-11-15T16:09:58;6.87;;;2.60;;
1164;SDS011;571;50.930;6.926;2022-11-15T16:12:28;2.90;;;2.13;;
1164;SDS011;571;50.930;6.926;2022-11-15T16:14:55;2.97;;;1.60;;
1164;SDS011;571;50.930;6.926;2022-11-15T16:17:23;4.20;;;2.07;;
1164;SDS011;571;50.930;6.926;2022-11-15T16:19:52;4.53;;;1.83;;
1164;SDS011;571;50.930;6.926;2022-11-15T16:22:20;3.30;;;2.10;;
1164;SDS011;571;50.930;6.926;2022-11-15T16:24:47;2.37;;;2.17;;
1164;SDS011;571;50.930;6.926;2022-11-15T16:27:14;2.37;;;2.17;;
1164;SDS011;571;50.930;6.926;2022-11-15T16:29:41;2.00;;;1.80;;
1164;SDS011;571;50.930;6.926;2022-11-15T16:32:09;3.00;;;2.07;;
1164;SDS011;571;50.930;6.926;2022-11-15T16:34:36;3.37;;;1.73;;
1164;SDS011;571;50.930;6.926;2022-11-15T16:37:03;2.20;;;2.00;;
1164;SDS011;571;50.930;6.926;2022-11-15T16:39:32;3.27;;;2.00;;
1164;SDS011;571;50.930;6.926;2022-11-15T16:41:59;2.03;;;1.73;;
1164;SDS011;571;50.930;6.926;2022-11-15T16:44:27;2.30;;;2.10;;
1164;SDS011;571;50.930;6.926;2022-11-15T16:46:54;2.20;;;1.87;;
1164;SDS011;571;50.930;6.926;2022-11-15T16:49:21;4.63;;;2.60;;
1164;SDS011;571;50.930;6.926;2022-11-15T16:51:48;2.70;;;2.40;;
1164;SDS011;571;50.930;6.926;2022-11-15T16:54:16;2.40;;;2.20;;
1164;SDS011;571;50.930;6.926;2022-11-15T16:56:44;4.60;;;1.97;;
1164;SDS011;571;50.930;6.926;2022-11-15T16:59:13;2.40;;;2.20;;
1164;SDS011;571;50.930;6.926;2022-11-15T17:01:42;2.60;;;2.13;;
1164;SDS011;571;50.930;6.926;2022-11-15T17:04:14;2.30;;;2.03;;
1164;SDS011;571;50.930;6.926;2022-11-15T17:06:42;2.03;;;1.83;;
1164;SDS011;571;50.930;6.926;2022-11-15T17:09:10;2.63;;;1.50;;
1164;SDS011;571;50.930;6.926;2022-11-15T17:11:39;3.07;;;2.43;;
1164;SDS011;571;50.930;6.926;2022-11-15T17:14:07;2.97;;;1.87;;
1164;SDS011;571;50.930;6.926;2022-11-15T17:16:35;5.93;;;2.70;;
1164;SDS011;571;50.930;6.926;2022-11-15T17:19:06;8.03;;;2.97;;
1164;SDS011;571;50.930;6.926;2022-11-15T17:21:37;4.23;;;2.27;;
1164;SDS011;571;50.930;6.926;2022-11-15T17:24:04;4.57;;;2.33;;
1164;SDS011;571;50.930;6.926;2022-11-15T17:26:31;6.20;;;2.23;;
1164;SDS011;571;50.930;6.926;2022-11-15T17:28:58;5.00;;;2.80;;
1164;SDS011;571;50.930;6.926;2022-11-15T17:31:26;2.77;;;1.97;;
1164;SDS011;571;50.930;6.926;2022-11-15T17:33:54;2.30;;;2.10;;
1164;SDS011;571;50.930;6.926;2022-11-15T17:36:21;2.47;;;2.10;;
1164;SDS011;571;50.930;6.926;2022-11-15T17:38:48;4.80;;;3.07;;
1164;SDS011;571;50.930;6.926;2022-11-15T17:41:16;2.70;;;1.87;;
1164;SDS011;571;50.930;6.926;2022-11-15T17:43:45;2.90;;;2.70;;
1164;SDS011;571;50.930;6.926;2022-11-15T17:46:12;2.50;;;2.00;;
1164;SDS011;571;50.930;6.926;2022-11-15T17:48:42;3.90;;;2.60;;
1164;SDS011;571;50.930;6.926;2022-11-15T17:51:10;4.10;;;2.37;;
1164;SDS011;571;50.930;6.926;2022-11-15T17:53:39;5.23;;;2.80;;
1164;SDS011;571;50.930;6.926;2022-11-15T17:56:08;2.50;;;2.30;;
1164;SDS011;571;50.930;6.926;2022-11-15T17:58:36;3.07;;;2.77;;
1164;SDS011;571;50.930;6.926;2022-11-15T18:01:06;2.30;;;2.10;;
1164;SDS011;571;50.930;6.926;2022-11-15T18:03:35;5.70;;;3.33;;
1164;SDS011;571;50.930;6.926;2022-11-15T18:06:04;12.30;;;3.50;;
1164;SDS011;571;50.930;6.926;2022-11-15T18:08:31;3.83;;;2.90;;
1164;SDS011;571;50.930;6.926;2022-11-15T18:11:04;3.40;;;2.90;;
1164;SDS011;571;50.930;6.926;2022-11-15T18:13:32;3.43;;;2.67;;
1164;SDS011;571;50.930;6.926;2022-11-15T18:16:00;4.80;;;2.90;;
1164;SDS011;571;50.930;6.926;2022-11-15T18:18:28;5.27;;;3.50;;
1164;SDS011;571;50.930;6.926;2022-11-15T18:21:00;4.20;;;3.00;;
1164;SDS011;571;50.930;6.926;2022-11-15T18:23:29;3.73;;;3.20;;
1164;SDS011;571;50.930;6.926;2022-11-15T18:25:56;5.37;;;3.50;;
1164;SDS011;571;50.930;6.926;2022-11-15T18:28:27;4.67;;;2.77;;
1164;SDS011;571;50.930;6.926;2022-11-15T18:30:59;4.83;;;3.07;;
1164;SDS011;571;50.930;6.926;2022-11-15T18:33:27;5.60;;;3.43;;
1164;SDS011;571;50.930;6.926;2022-11-15T18:35:58;5.70;;;3.00;;
1164;SDS011;571;50.930;6.926;2022-11-15T18:38:26;3.53;;;3.10;;
1164;SDS011;571;50.930;6.926;2022-11-15T18:40:56;7.70;;;3.40;;
1164;SDS011;571;50.930;6.926;2022-11-15T18:43:23;3.73;;;3.43;;
1164;SDS011;571;50.930;6.926;2022-11-15T18:45:50;4.10;;;3.60;;
1164;SDS011;571;50.930;6.926;2022-11-15T18:48:17;3.90;;;3.37;;
1164;SDS011;571;50.930;6.926;2022-11-15T18:50:43;3.53;;;3.20;;
1164;SDS011;571;50.930;6.926;2022-11-15T18:53:14;4.43;;;3.53;;
1164;SDS011;571;50.930;6.926;2022-11-15T18:55:41;4.93;;;4.30;;
1164;SDS011;571;50.930;6.926;2022-11-15T18:58:09;5.00;;;4.50;;
1164;SDS011;571;50.930;6.926;2022-11-15T19:00:39;4.23;;;3.83;;
1164;SDS011;571;50.930;6.926;2022-11-15T19:03:06;5.43;;;4.70;;
1164;SDS011;571;50.930;6.926;2022-11-15T19:05:33;8.80;;;5.70;;
1164;SDS011;571;50.930;6.926;2022-11-15T19:08:19;6.50;;;4.23;;
1164;SDS011;571;50.930;6.926;2022-11-15T19:11:21;4.50;;;4.10;;
1164;SDS011;571;50.930;6.926;2022-11-15T19:14:19;4.60;;;4.20;;
1164;SDS011;571;50.930;6.926;2022-11-15T19:33:28;5.73;;;5.23;;
1164;SDS011;571;50.930;6.926;2022-11-15T19:35:58;7.90;;;5.37;;
1164;SDS011;571;50.930;6.926;2022-11-15T19:38:36;6.63;;;5.40;;
1164;SDS011;571;50.930;6.926;2022-11-15T19:41:33;6.43;;;5.83;;
1164;SDS011;571;50.930;6.926;2022-11-15T19:47:29;5.57;;;5.07;;
1164;SDS011;571;50.930;6.926;2022-11-15T19:53:54;6.07;;;5.57;;
1164;SDS011;571;50.930;6.926;2022-11-15T19:57:08;6.20;;;5.60;;
1164;SDS011;571;50.930;6.926;2022-11-15T19:59:54;7.13;;;6.43;;
1164;SDS011;571;50.930;6.926;2022-11-15T20:03:06;5.90;;;5.40;;
1164;SDS011;571;50.930;6.926;2022-11-15T20:05:39;7.27;;;6.30;;
1164;SDS011;571;50.930;6.926;2022-11-15T20:08:10;6.67;;;6.07;;
1164;SDS011;571;50.930;6.926;2022-11-15T20:13:44;6.57;;;5.90;;
1164;SDS011;571;50.930;6.926;2022-11-15T20:16:13;5.80;;;5.20;;
1164;SDS011;571;50.930;6.926;2022-11-15T20:18:44;10.83;;;6.67;;
1164;SDS011;571;50.930;6.926;2022-11-15T20:21:12;7.97;;;7.10;;